Westwood Rainier — C6SI3 — position and weather

sailwx.info

Track history (hours):
 
Tides and Currents Weather Stations Pressure Air Temp Water Temp Dewpoint Dewpoint Depression Visibility Wind Speed Wind Dir Waves Ship Positions

Westwood Rainier

Last reported at 2016-Jul-23 00:00 UTC. Time now 2016-Jul-24 04:56 UTC.
Position N 40°06' E 149°00'.

Type: Cargo ship. MMSI: 311348993.

Wind from 090 at 25 knots

Waves 2.0 meters (7 feet), 8 second period

Barometer 1016.7 mb
Air temperature 19.0 ° C
Visibility: greater than 5.4 NM
Dewpoint 17.4 ° C
Water temperature 21.0 ° C

Date/timePositionNaut miles runAvg speedWind from/ knotsBaromVisibWave heightAir tempDewpointWater temp
2016-Jul-23 00:00N 40°06' E 149°00'32913.7 090 / 251016.7 5.4 2.019.017.421.0
2016-Jul-22 00:00N 36°48' E 143°24'16415.7 050 / 241014.2 5.4 2.522.017.225.0
2016-Jul-21 13:31N 35°06' E 140°45'2813.8
2016-Jul-21 11:27N 34°50' E 140°17'1613.5
2016-Jul-21 10:18N 34°50' E 139°57'1113.2
2016-Jul-21 09:29N 34°50' E 139°44'1112.3
2016-Jul-21 08:33N 35°01' E 139°41'1212.2
2016-Jul-21 07:33N 35°13' E 139°46'1212.0
2016-Jul-21 06:33N 35°24' E 139°43'1111.0
2016-Jul-21 05:33N 35°34' E 139°49'3 2.8
2016-Jul-21 04:31N 35°36' E 139°47'0 0.0
2016-Jul-21 03:31N 35°36' E 139°47'0 0.0
2016-Jul-21 02:31N 35°36' E 139°47'0 0.0
2016-Jul-21 01:31N 35°36' E 139°47'0 0.4
2016-Jul-21 00:34N 35°36' E 139°47'9 9.1
2016-Jul-20 23:34N 35°27' E 139°50'1111.0
2016-Jul-20 22:34N 35°17' E 139°46'1110.9
2016-Jul-20 21:33N 35°06' E 139°46'1211.2
2016-Jul-20 20:30N 34°54' E 139°42'5811.0
2016-Jul-20 15:12N 34°32' E 138°36'186 3.9
2016-Jul-18 15:17N 33°55' E 134°55'1216.2
2016-Jul-18 14:33N 34°07' E 134°55'1514.6
2016-Jul-18 13:33N 34°22' E 134°60'1616.0
2016-Jul-18 12:33N 34°33' E 135°13'1110.6
2016-Jul-18 11:33N 34°38' E 135°25'0 0.0
2016-Jul-18 10:32N 34°38' E 135°25'0 0.0
2016-Jul-18 09:26N 34°38' E 135°25'0 0.0
2016-Jul-18 08:32N 34°38' E 135°25'0 0.0
2016-Jul-18 07:32N 34°38' E 135°25'0 0.0
2016-Jul-18 06:14N 34°38' E 135°25'0 0.0
2016-Jul-18 04:32N 34°38' E 135°25'0 0.0
2016-Jul-18 03:20N 34°38' E 135°25'0 0.0
2016-Jul-18 02:32N 34°38' E 135°25'0 0.0
2016-Jul-18 01:26N 34°38' E 135°25'0 0.0
2016-Jul-18 00:32N 34°38' E 135°25'0 0.0
2016-Jul-17 23:32N 34°38' E 135°25'0 0.0
2016-Jul-17 22:26N 34°38' E 135°25'2 2.7
2016-Jul-17 21:33N 34°37' E 135°22'1111.0
2016-Jul-17 20:34N 34°30' E 135°12'1414.3
2016-Jul-17 19:34N 34°19' E 135°01'1311.8
2016-Jul-17 18:29N 34°06' E 134°60'  
Track history (hours):
 
Tides and Currents Weather Stations Pressure Air Temp Water Temp Dewpoint Dewpoint Depression Visibility Wind Speed Wind Dir Waves Ship Positions

Westwood Rainier

Last reported at 2016-Jul-23 00:00 UTC. Time now 2016-Jul-24 04:56 UTC.
Position N 40°06' E 149°00'.

Type: Cargo ship. MMSI: 311348993.

Wind from 090 at 25 knots

Waves 2.0 meters (7 feet), 8 second period

Barometer 1016.7 mb
Air temperature 19.0 ° C
Visibility: greater than 5.4 NM
Dewpoint 17.4 ° C
Water temperature 21.0 ° C

Date/timePositionNaut miles runAvg speedWind from/ knotsBaromVisibWave heightAir tempDewpointWater temp
2016-Jul-23 00:00N 40°06' E 149°00'32913.7 090 / 251016.7 5.4 2.019.017.421.0
2016-Jul-22 00:00N 36°48' E 143°24'16415.7 050 / 241014.2 5.4 2.522.017.225.0
2016-Jul-21 13:31N 35°06' E 140°45'2813.8
2016-Jul-21 11:27N 34°50' E 140°17'1613.5
2016-Jul-21 10:18N 34°50' E 139°57'1113.2
2016-Jul-21 09:29N 34°50' E 139°44'1112.3
2016-Jul-21 08:33N 35°01' E 139°41'1212.2
2016-Jul-21 07:33N 35°13' E 139°46'1212.0
2016-Jul-21 06:33N 35°24' E 139°43'1111.0
2016-Jul-21 05:33N 35°34' E 139°49'3 2.8
2016-Jul-21 04:31N 35°36' E 139°47'0 0.0
2016-Jul-21 03:31N 35°36' E 139°47'0 0.0
2016-Jul-21 02:31N 35°36' E 139°47'0 0.0
2016-Jul-21 01:31N 35°36' E 139°47'0 0.4
2016-Jul-21 00:34N 35°36' E 139°47'9 9.1
2016-Jul-20 23:34N 35°27' E 139°50'1111.0
2016-Jul-20 22:34N 35°17' E 139°46'1110.9
2016-Jul-20 21:33N 35°06' E 139°46'1211.2
2016-Jul-20 20:30N 34°54' E 139°42'5811.0
2016-Jul-20 15:12N 34°32' E 138°36'186 3.9
2016-Jul-18 15:17N 33°55' E 134°55'1216.2
2016-Jul-18 14:33N 34°07' E 134°55'1514.6
2016-Jul-18 13:33N 34°22' E 134°60'1616.0
2016-Jul-18 12:33N 34°33' E 135°13'1110.6
2016-Jul-18 11:33N 34°38' E 135°25'0 0.0
2016-Jul-18 10:32N 34°38' E 135°25'0 0.0
2016-Jul-18 09:26N 34°38' E 135°25'0 0.0
2016-Jul-18 08:32N 34°38' E 135°25'0 0.0
2016-Jul-18 07:32N 34°38' E 135°25'0 0.0
2016-Jul-18 06:14N 34°38' E 135°25'0 0.0
2016-Jul-18 04:32N 34°38' E 135°25'0 0.0
2016-Jul-18 03:20N 34°38' E 135°25'0 0.0
2016-Jul-18 02:32N 34°38' E 135°25'0 0.0
2016-Jul-18 01:26N 34°38' E 135°25'0 0.0
2016-Jul-18 00:32N 34°38' E 135°25'0 0.0
2016-Jul-17 23:32N 34°38' E 135°25'0 0.0
2016-Jul-17 22:26N 34°38' E 135°25'2 2.7
2016-Jul-17 21:33N 34°37' E 135°22'1111.0
2016-Jul-17 20:34N 34°30' E 135°12'1414.3
2016-Jul-17 19:34N 34°19' E 135°01'1311.8
2016-Jul-17 18:29N 34°06' E 134°60'  

Dump ship's entire track history